sensor_id;sensor_type;location;lat;lon;timestamp;temperature;humidity
33994;DHT22;20673;48.980;8.138;2022-09-09T00:04:35;14.80;99.90
33994;DHT22;20673;48.980;8.138;2022-09-09T00:07:28;14.70;99.90
33994;DHT22;20673;48.980;8.138;2022-09-09T00:10:16;14.70;99.90
33994;DHT22;20673;48.980;8.138;2022-09-09T00:18:52;14.80;99.90
33994;DHT22;20673;48.980;8.138;2022-09-09T00:21:32;14.80;99.90
33994;DHT22;20673;48.980;8.138;2022-09-09T00:26:48;14.80;99.90
33994;DHT22;20673;48.980;8.138;2022-09-09T00:32:16;14.90;99.90
33994;DHT22;20673;48.980;8.138;2022-09-09T00:34:55;14.90;99.90
33994;DHT22;20673;48.980;8.138;2022-09-09T00:37:25;14.90;99.90
33994;DHT22;20673;48.980;8.138;2022-09-09T00:39:57;14.90;99.90
33994;DHT22;20673;48.980;8.138;2022-09-09T00:42:36;14.90;99.90
33994;DHT22;20673;48.980;8.138;2022-09-09T00:47:51;15.00;99.90
33994;DHT22;20673;48.980;8.138;2022-09-09T00:50:33;15.00;99.90
33994;DHT22;20673;48.980;8.138;2022-09-09T00:56:14;15.10;99.90
33994;DHT22;20673;48.980;8.138;2022-09-09T01:01:40;15.20;99.90
33994;DHT22;20673;48.980;8.138;2022-09-09T01:04:10;15.20;99.90
33994;DHT22;20673;48.980;8.138;2022-09-09T01:06:41;15.30;99.90
33994;DHT22;20673;48.980;8.138;2022-09-09T01:11:52;15.60;99.90
33994;DHT22;20673;48.980;8.138;2022-09-09T01:17:32;15.90;99.90
33994;DHT22;20673;48.980;8.138;2022-09-09T01:28:43;16.30;99.90
33994;DHT22;20673;48.980;8.138;2022-09-09T01:31:15;16.30;99.90
33994;DHT22;20673;48.980;8.138;2022-09-09T01:33:43;16.30;99.90
33994;DHT22;20673;48.980;8.138;2022-09-09T01:36:31;16.20;99.90
33994;DHT22;20673;48.980;8.138;2022-09-09T01:38:59;16.10;99.90
33994;DHT22;20673;48.980;8.138;2022-09-09T01:41:25;15.90;99.90
33994;DHT22;20673;48.980;8.138;2022-09-09T01:43:53;15.80;99.90
33994;DHT22;20673;48.980;8.138;2022-09-09T01:46:22;15.70;99.90
33994;DHT22;20673;48.980;8.138;2022-09-09T01:48:53;15.60;99.90
33994;DHT22;20673;48.980;8.138;2022-09-09T01:51:21;15.60;99.90
33994;DHT22;20673;48.980;8.138;2022-09-09T01:53:48;15.50;99.90
33994;DHT22;20673;48.980;8.138;2022-09-09T02:02:11;15.20;99.90
33994;DHT22;20673;48.980;8.138;2022-09-09T02:04:55;15.20;99.90
33994;DHT22;20673;48.980;8.138;2022-09-09T02:07:48;15.20;99.90
33994;DHT22;20673;48.980;8.138;2022-09-09T02:10:16;15.20;99.90
33994;DHT22;20673;48.980;8.138;2022-09-09T02:12:55;15.20;99.90
33994;DHT22;20673;48.980;8.138;2022-09-09T02:15:33;15.20;99.90
33994;DHT22;20673;48.980;8.138;2022-09-09T02:17:58;15.20;99.90
33994;DHT22;20673;48.980;8.138;2022-09-09T02:20:29;15.20;99.90
33994;DHT22;20673;48.980;8.138;2022-09-09T02:22:58;15.20;99.90
33994;DHT22;20673;48.980;8.138;2022-09-09T02:25:28;15.30;99.90
33994;DHT22;20673;48.980;8.138;2022-09-09T02:27:57;15.20;99.90
33994;DHT22;20673;48.980;8.138;2022-09-09T02:30:25;15.20;99.90
33994;DHT22;20673;48.980;8.138;2022-09-09T02:32:56;15.20;99.90
33994;DHT22;20673;48.980;8.138;2022-09-09T02:35:26;15.10;99.90
33994;DHT22;20673;48.980;8.138;2022-09-09T02:37:59;15.10;99.90
33994;DHT22;20673;48.980;8.138;2022-09-09T02:40:27;15.10;99.90
33994;DHT22;20673;48.980;8.138;2022-09-09T02:42:54;15.10;99.90
33994;DHT22;20673;48.980;8.138;2022-09-09T02:45:24;15.10;99.90
33994;DHT22;20673;48.980;8.138;2022-09-09T02:53:49;15.20;99.90
33994;DHT22;20673;48.980;8.138;2022-09-09T02:56:27;15.20;99.90
33994;DHT22;20673;48.980;8.138;2022-09-09T02:58:56;15.20;99.90
33994;DHT22;20673;48.980;8.138;2022-09-09T03:01:22;15.20;99.90
33994;DHT22;20673;48.980;8.138;2022-09-09T03:03:49;15.20;99.90
33994;DHT22;20673;48.980;8.138;2022-09-09T03:06:15;15.10;99.90
33994;DHT22;20673;48.980;8.138;2022-09-09T03:08:42;15.10;99.90
33994;DHT22;20673;48.980;8.138;2022-09-09T03:11:08;15.20;99.90
33994;DHT22;20673;48.980;8.138;2022-09-09T03:13:35;15.20;99.90
33994;DHT22;20673;48.980;8.138;2022-09-09T03:16:01;15.20;99.90
33994;DHT22;20673;48.980;8.138;2022-09-09T03:18:29;15.20;99.90
33994;DHT22;20673;48.980;8.138;2022-09-09T03:20:55;15.20;99.90
33994;DHT22;20673;48.980;8.138;2022-09-09T03:23:21;15.20;99.90
33994;DHT22;20673;48.980;8.138;2022-09-09T03:25:49;15.20;99.90
33994;DHT22;20673;48.980;8.138;2022-09-09T03:28:15;15.20;99.90
33994;DHT22;20673;48.980;8.138;2022-09-09T03:30:42;15.20;99.90
33994;DHT22;20673;48.980;8.138;2022-09-09T03:33:08;15.30;99.90
33994;DHT22;20673;48.980;8.138;2022-09-09T03:35:35;15.30;99.90
33994;DHT22;20673;48.980;8.138;2022-09-09T03:38:01;15.20;99.90
33994;DHT22;20673;48.980;8.138;2022-09-09T03:40:27;15.20;99.90
33994;DHT22;20673;48.980;8.138;2022-09-09T03:42:54;15.20;99.90
33994;DHT22;20673;48.980;8.138;2022-09-09T03:45:20;15.20;99.90
33994;DHT22;20673;48.980;8.138;2022-09-09T03:47:46;15.20;99.90
33994;DHT22;20673;48.980;8.138;2022-09-09T03:50:12;15.20;99.90
33994;DHT22;20673;48.980;8.138;2022-09-09T03:52:40;15.20;99.90
33994;DHT22;20673;48.980;8.138;2022-09-09T03:55:07;15.20;99.90
33994;DHT22;20673;48.980;8.138;2022-09-09T03:57:35;15.20;99.90
33994;DHT22;20673;48.980;8.138;2022-09-09T04:00:04;15.20;99.90
33994;DHT22;20673;48.980;8.138;2022-09-09T04:02:32;15.20;99.90
33994;DHT22;20673;48.980;8.138;2022-09-09T04:04:58;15.10;99.90
33994;DHT22;20673;48.980;8.138;2022-09-09T04:07:25;15.20;99.90
33994;DHT22;20673;48.980;8.138;2022-09-09T04:09:53;15.10;99.90
33994;DHT22;20673;48.980;8.138;2022-09-09T04:12:20;15.10;99.90
33994;DHT22;20673;48.980;8.138;2022-09-09T04:14:46;15.00;99.90
33994;DHT22;20673;48.980;8.138;2022-09-09T04:17:12;14.90;99.90
33994;DHT22;20673;48.980;8.138;2022-09-09T04:19:38;14.90;99.90
33994;DHT22;20673;48.980;8.138;2022-09-09T04:22:04;14.90;99.90
33994;DHT22;20673;48.980;8.138;2022-09-09T04:24:31;15.00;99.90
33994;DHT22;20673;48.980;8.138;2022-09-09T04:26:57;14.90;99.90
33994;DHT22;20673;48.980;8.138;2022-09-09T04:29:23;14.90;99.90
33994;DHT22;20673;48.980;8.138;2022-09-09T04:31:49;14.80;99.90
33994;DHT22;20673;48.980;8.138;2022-09-09T04:34:15;14.70;99.90
33994;DHT22;20673;48.980;8.138;2022-09-09T04:36:41;14.70;99.90
33994;DHT22;20673;48.980;8.138;2022-09-09T04:39:07;14.60;99.90
33994;DHT22;20673;48.980;8.138;2022-09-09T04:41:33;14.60;99.90
33994;DHT22;20673;48.980;8.138;2022-09-09T04:44:01;14.50;99.90
33994;DHT22;20673;48.980;8.138;2022-09-09T04:46:29;14.50;99.90
33994;DHT22;20673;48.980;8.138;2022-09-09T04:48:55;14.50;99.90
33994;DHT22;20673;48.980;8.138;2022-09-09T04:51:21;14.40;99.90
33994;DHT22;20673;48.980;8.138;2022-09-09T04:53:48;14.40;99.90
33994;DHT22;20673;48.980;8.138;2022-09-09T04:56:16;14.40;99.90
33994;DHT22;20673;48.980;8.138;2022-09-09T04:58:43;14.30;99.90
33994;DHT22;20673;48.980;8.138;2022-09-09T05:01:20;14.30;99.90
33994;DHT22;20673;48.980;8.138;2022-09-09T05:03:47;14.40;99.90
33994;DHT22;20673;48.980;8.138;2022-09-09T05:06:15;14.40;99.90
33994;DHT22;20673;48.980;8.138;2022-09-09T05:08:44;14.40;99.90
33994;DHT22;20673;48.980;8.138;2022-09-09T05:11:20;14.40;99.90
33994;DHT22;20673;48.980;8.138;2022-09-09T05:13:50;14.50;99.90
33994;DHT22;20673;48.980;8.138;2022-09-09T05:16:17;14.50;99.90
33994;DHT22;20673;48.980;8.138;2022-09-09T05:18:44;14.50;99.90
33994;DHT22;20673;48.980;8.138;2022-09-09T05:21:12;14.60;99.90
33994;DHT22;20673;48.980;8.138;2022-09-09T05:23:40;14.70;99.90
33994;DHT22;20673;48.980;8.138;2022-09-09T05:26:08;14.70;99.90
33994;DHT22;20673;48.980;8.138;2022-09-09T05:28:37;14.80;99.90
33994;DHT22;20673;48.980;8.138;2022-09-09T05:31:05;14.90;99.90
33994;DHT22;20673;48.980;8.138;2022-09-09T05:33:37;14.90;99.90
33994;DHT22;20673;48.980;8.138;2022-09-09T05:36:07;14.90;99.90
33994;DHT22;20673;48.980;8.138;2022-09-09T05:38:36;14.90;99.90
33994;DHT22;20673;48.980;8.138;2022-09-09T05:41:03;15.00;99.90
33994;DHT22;20673;48.980;8.138;2022-09-09T05:43:30;15.00;99.90
33994;DHT22;20673;48.980;8.138;2022-09-09T05:46:05;15.00;99.90
33994;DHT22;20673;48.980;8.138;2022-09-09T05:48:35;15.10;99.90
33994;DHT22;20673;48.980;8.138;2022-09-09T05:51:03;15.20;99.90
33994;DHT22;20673;48.980;8.138;2022-09-09T05:53:32;15.20;99.90
33994;DHT22;20673;48.980;8.138;2022-09-09T05:56:04;15.30;99.90
33994;DHT22;20673;48.980;8.138;2022-09-09T05:58:37;15.40;99.90
33994;DHT22;20673;48.980;8.138;2022-09-09T06:01:09;15.40;99.90
33994;DHT22;20673;48.980;8.138;2022-09-09T06:03:40;15.50;99.90
33994;DHT22;20673;48.980;8.138;2022-09-09T06:06:10;15.60;99.90
33994;DHT22;20673;48.980;8.138;2022-09-09T06:08:39;15.70;99.90
33994;DHT22;20673;48.980;8.138;2022-09-09T06:11:10;15.80;99.90
33994;DHT22;20673;48.980;8.138;2022-09-09T06:13:44;15.80;99.90
33994;DHT22;20673;48.980;8.138;2022-09-09T06:16:16;15.90;99.90
33994;DHT22;20673;48.980;8.138;2022-09-09T06:18:44;16.00;99.90
33994;DHT22;20673;48.980;8.138;2022-09-09T06:21:19;16.10;99.90
33994;DHT22;20673;48.980;8.138;2022-09-09T06:23:48;16.20;99.90
33994;DHT22;20673;48.980;8.138;2022-09-09T06:26:20;16.20;99.90
33994;DHT22;20673;48.980;8.138;2022-09-09T06:28:47;16.30;99.90
33994;DHT22;20673;48.980;8.138;2022-09-09T06:31:17;16.30;99.90
33994;DHT22;20673;48.980;8.138;2022-09-09T06:33:47;16.40;99.90
33994;DHT22;20673;48.980;8.138;2022-09-09T06:36:20;16.40;99.90
33994;DHT22;20673;48.980;8.138;2022-09-09T06:38:48;16.50;99.90
33994;DHT22;20673;48.980;8.138;2022-09-09T06:41:16;16.50;99.90
33994;DHT22;20673;48.980;8.138;2022-09-09T06:43:45;16.50;99.90
33994;DHT22;20673;48.980;8.138;2022-09-09T06:46:18;16.60;99.90
33994;DHT22;20673;48.980;8.138;2022-09-09T06:48:44;16.70;99.90
33994;DHT22;20673;48.980;8.138;2022-09-09T06:51:18;16.70;99.90
33994;DHT22;20673;48.980;8.138;2022-09-09T06:53:53;16.80;99.90
33994;DHT22;20673;48.980;8.138;2022-09-09T06:56:27;16.70;99.90
33994;DHT22;20673;48.980;8.138;2022-09-09T06:59:06;16.80;99.90
33994;DHT22;20673;48.980;8.138;2022-09-09T07:01:33;16.70;99.90
33994;DHT22;20673;48.980;8.138;2022-09-09T07:04:01;16.70;99.90
33994;DHT22;20673;48.980;8.138;2022-09-09T07:06:31;16.80;99.90
33994;DHT22;20673;48.980;8.138;2022-09-09T07:09:01;16.80;99.90
33994;DHT22;20673;48.980;8.138;2022-09-09T07:11:42;16.70;99.90
33994;DHT22;20673;48.980;8.138;2022-09-09T07:14:11;16.70;99.90
33994;DHT22;20673;48.980;8.138;2022-09-09T07:16:40;16.80;99.90
33994;DHT22;20673;48.980;8.138;2022-09-09T07:19:07;16.70;99.90
33994;DHT22;20673;48.980;8.138;2022-09-09T07:21:34;16.70;99.90
33994;DHT22;20673;48.980;8.138;2022-09-09T07:24:00;16.80;99.90
33994;DHT22;20673;48.980;8.138;2022-09-09T07:26:29;16.90;99.90
33994;DHT22;20673;48.980;8.138;2022-09-09T07:28:56;16.90;99.90
33994;DHT22;20673;48.980;8.138;2022-09-09T07:31:26;16.90;99.90
33994;DHT22;20673;48.980;8.138;2022-09-09T07:33:57;17.00;99.90
33994;DHT22;20673;48.980;8.138;2022-09-09T07:36:27;17.10;99.90
33994;DHT22;20673;48.980;8.138;2022-09-09T07:38:58;17.30;99.90
33994;DHT22;20673;48.980;8.138;2022-09-09T07:41:30;17.50;99.90
33994;DHT22;20673;48.980;8.138;2022-09-09T07:44:10;17.80;99.90
33994;DHT22;20673;48.980;8.138;2022-09-09T07:46:39;18.20;99.90
33994;DHT22;20673;48.980;8.138;2022-09-09T07:49:08;18.50;99.90
33994;DHT22;20673;48.980;8.138;2022-09-09T07:51:42;18.70;99.90
33994;DHT22;20673;48.980;8.138;2022-09-09T07:54:08;18.80;99.90
33994;DHT22;20673;48.980;8.138;2022-09-09T07:56:37;18.80;99.90
33994;DHT22;20673;48.980;8.138;2022-09-09T07:59:05;18.80;99.90
33994;DHT22;20673;48.980;8.138;2022-09-09T08:01:37;18.70;99.90
33994;DHT22;20673;48.980;8.138;2022-09-09T08:04:09;18.60;99.90
33994;DHT22;20673;48.980;8.138;2022-09-09T08:06:40;18.50;99.90
33994;DHT22;20673;48.980;8.138;2022-09-09T08:09:08;18.50;99.90
33994;DHT22;20673;48.980;8.138;2022-09-09T08:11:35;18.40;99.90
33994;DHT22;20673;48.980;8.138;2022-09-09T08:14:03;18.30;99.90
33994;DHT22;20673;48.980;8.138;2022-09-09T08:16:32;18.40;99.90
33994;DHT22;20673;48.980;8.138;2022-09-09T08:19:02;18.50;99.90
33994;DHT22;20673;48.980;8.138;2022-09-09T08:21:31;18.70;99.90
33994;DHT22;20673;48.980;8.138;2022-09-09T08:24:00;18.90;99.90
33994;DHT22;20673;48.980;8.138;2022-09-09T08:26:42;19.00;99.90
33994;DHT22;20673;48.980;8.138;2022-09-09T08:29:11;18.90;99.90
33994;DHT22;20673;48.980;8.138;2022-09-09T08:31:50;18.90;99.90
33994;DHT22;20673;48.980;8.138;2022-09-09T08:34:24;18.80;99.90
33994;DHT22;20673;48.980;8.138;2022-09-09T08:36:53;18.80;99.90
33994;DHT22;20673;48.980;8.138;2022-09-09T08:39:21;18.80;99.90
33994;DHT22;20673;48.980;8.138;2022-09-09T08:42:17;18.70;99.90
33994;DHT22;20673;48.980;8.138;2022-09-09T08:47:35;18.80;99.90
33994;DHT22;20673;48.980;8.138;2022-09-09T08:53:05;19.00;99.90
33994;DHT22;20673;48.980;8.138;2022-09-09T08:55:50;19.10;99.90
33994;DHT22;20673;48.980;8.138;2022-09-09T08:58:29;19.10;99.90
33994;DHT22;20673;48.980;8.138;2022-09-09T09:10:09;19.60;99.90
33994;DHT22;20673;48.980;8.138;2022-09-09T09:12:46;19.80;99.90
33994;DHT22;20673;48.980;8.138;2022-09-09T09:15:26;20.00;99.90
33994;DHT22;20673;48.980;8.138;2022-09-09T09:17:55;20.10;99.90
33994;DHT22;20673;48.980;8.138;2022-09-09T09:23:30;19.90;99.90
33994;DHT22;20673;48.980;8.138;2022-09-09T09:26:00;19.70;99.90
33994;DHT22;20673;48.980;8.138;2022-09-09T09:28:31;19.70;99.90
33994;DHT22;20673;48.980;8.138;2022-09-09T09:31:16;19.70;99.90
33994;DHT22;20673;48.980;8.138;2022-09-09T09:33:48;19.90;99.90
33994;DHT22;20673;48.980;8.138;2022-09-09T09:36:19;20.20;99.90
33994;DHT22;20673;48.980;8.138;2022-09-09T09:38:59;20.90;99.90
33994;DHT22;20673;48.980;8.138;2022-09-09T09:41:38;21.40;99.90
33994;DHT22;20673;48.980;8.138;2022-09-09T09:44:24;21.50;99.90
33994;DHT22;20673;48.980;8.138;2022-09-09T09:47:10;21.90;99.90
33994;DHT22;20673;48.980;8.138;2022-09-09T09:50:46;22.40;99.90
33994;DHT22;20673;48.980;8.138;2022-09-09T09:52:26;22.50;99.90
33994;DHT22;20673;48.980;8.138;2022-09-09T09:54:56;22.10;99.90
33994;DHT22;20673;48.980;8.138;2022-09-09T09:57:29;21.80;99.90
33994;DHT22;20673;48.980;8.138;2022-09-09T10:00:18;21.40;99.90
33994;DHT22;20673;48.980;8.138;2022-09-09T10:02:47;21.20;99.90
33994;DHT22;20673;48.980;8.138;2022-09-09T10:05:26;21.30;99.90
33994;DHT22;20673;48.980;8.138;2022-09-09T10:10:51;20.90;99.90
33994;DHT22;20673;48.980;8.138;2022-09-09T10:19:33;20.80;99.90
33994;DHT22;20673;48.980;8.138;2022-09-09T10:28:43;20.90;99.90
33994;DHT22;20673;48.980;8.138;2022-09-09T10:31:19;21.30;99.90
33994;DHT22;20673;48.980;8.138;2022-09-09T10:34:08;21.30;99.90
33994;DHT22;20673;48.980;8.138;2022-09-09T10:36:40;21.60;99.90
33994;DHT22;20673;48.980;8.138;2022-09-09T10:42:06;23.10;99.90
33994;DHT22;20673;48.980;8.138;2022-09-09T10:50:40;24.20;99.90
33994;DHT22;20673;48.980;8.138;2022-09-09T10:56:12;24.20;99.90
33994;DHT22;20673;48.980;8.138;2022-09-09T11:01:25;23.60;99.90
33994;DHT22;20673;48.980;8.138;2022-09-09T11:04:09;23.20;99.90
33994;DHT22;20673;48.980;8.138;2022-09-09T11:06:50;23.50;99.90
33994;DHT22;20673;48.980;8.138;2022-09-09T11:09:25;24.20;99.90
33994;DHT22;20673;48.980;8.138;2022-09-09T11:11:55;24.70;99.90
33994;DHT22;20673;48.980;8.138;2022-09-09T11:14:34;25.20;99.90
33994;DHT22;20673;48.980;8.138;2022-09-09T11:17:23;25.30;99.90
33994;DHT22;20673;48.980;8.138;2022-09-09T11:19:55;24.50;99.90
33994;DHT22;20673;48.980;8.138;2022-09-09T11:25:14;23.20;99.90
33994;DHT22;20673;48.980;8.138;2022-09-09T11:36:37;22.90;99.90
33994;DHT22;20673;48.980;8.138;2022-09-09T11:44:44;23.40;99.90
33994;DHT22;20673;48.980;8.138;2022-09-09T11:47:28;23.20;99.90
33994;DHT22;20673;48.980;8.138;2022-09-09T11:52:48;22.60;99.90
33994;DHT22;20673;48.980;8.138;2022-09-09T11:55:29;22.40;99.90
33994;DHT22;20673;48.980;8.138;2022-09-09T11:58:04;22.30;99.90
33994;DHT22;20673;48.980;8.138;2022-09-09T12:00:39;22.10;99.90
33994;DHT22;20673;48.980;8.138;2022-09-09T12:06:18;22.20;99.90
33994;DHT22;20673;48.980;8.138;2022-09-09T12:08:55;22.00;99.90
33994;DHT22;20673;48.980;8.138;2022-09-09T12:11:36;21.80;99.90
33994;DHT22;20673;48.980;8.138;2022-09-09T12:14:03;21.50;99.90
33994;DHT22;20673;48.980;8.138;2022-09-09T12:16:37;21.30;99.90
33994;DHT22;20673;48.980;8.138;2022-09-09T12:22:05;20.50;99.90
33994;DHT22;20673;48.980;8.138;2022-09-09T12:24:49;20.20;99.90
33994;DHT22;20673;48.980;8.138;2022-09-09T12:32:28;20.30;99.90
33994;DHT22;20673;48.980;8.138;2022-09-09T12:35:02;21.10;99.90
33994;DHT22;20673;48.980;8.138;2022-09-09T12:40:24;22.30;99.90
33994;DHT22;20673;48.980;8.138;2022-09-09T12:42:52;22.40;99.90
33994;DHT22;20673;48.980;8.138;2022-09-09T12:45:23;22.40;99.90
33994;DHT22;20673;48.980;8.138;2022-09-09T12:47:54;22.10;99.90
33994;DHT22;20673;48.980;8.138;2022-09-09T12:50:36;21.50;99.90
33994;DHT22;20673;48.980;8.138;2022-09-09T12:53:10;20.80;99.90
33994;DHT22;20673;48.980;8.138;2022-09-09T12:55:48;20.70;99.90
33994;DHT22;20673;48.980;8.138;2022-09-09T12:58:21;20.40;99.90
33994;DHT22;20673;48.980;8.138;2022-09-09T13:00:56;20.00;99.90
33994;DHT22;20673;48.980;8.138;2022-09-09T13:03:23;19.90;99.90
33994;DHT22;20673;48.980;8.138;2022-09-09T13:05:51;19.90;99.90
33994;DHT22;20673;48.980;8.138;2022-09-09T13:08:19;19.90;99.90
33994;DHT22;20673;48.980;8.138;2022-09-09T13:11:03;20.10;99.90
33994;DHT22;20673;48.980;8.138;2022-09-09T13:13:42;20.50;99.90
33994;DHT22;20673;48.980;8.138;2022-09-09T13:16:31;20.80;99.90
33994;DHT22;20673;48.980;8.138;2022-09-09T13:18:59;21.40;99.90
33994;DHT22;20673;48.980;8.138;2022-09-09T13:21:32;21.80;99.90
33994;DHT22;20673;48.980;8.138;2022-09-09T13:24:00;22.40;99.90
33994;DHT22;20673;48.980;8.138;2022-09-09T13:26:29;22.90;99.90
33994;DHT22;20673;48.980;8.138;2022-09-09T13:29:17;23.20;99.90
33994;DHT22;20673;48.980;8.138;2022-09-09T13:31:44;22.90;99.90
33994;DHT22;20673;48.980;8.138;2022-09-09T13:34:29;22.40;99.90
33994;DHT22;20673;48.980;8.138;2022-09-09T13:37:00;22.00;99.90
33994;DHT22;20673;48.980;8.138;2022-09-09T13:39:29;21.50;99.90
33994;DHT22;20673;48.980;8.138;2022-09-09T13:41:55;21.20;99.90
33994;DHT22;20673;48.980;8.138;2022-09-09T13:44:27;21.00;99.90
33994;DHT22;20673;48.980;8.138;2022-09-09T13:49:31;20.80;99.90
33994;DHT22;20673;48.980;8.138;2022-09-09T13:52:10;21.10;99.90
33994;DHT22;20673;48.980;8.138;2022-09-09T13:54:42;21.70;99.90
33994;DHT22;20673;48.980;8.138;2022-09-09T13:57:24;22.30;99.90
33994;DHT22;20673;48.980;8.138;2022-09-09T13:59:52;22.40;99.90
33994;DHT22;20673;48.980;8.138;2022-09-09T14:02:20;22.60;99.90
33994;DHT22;20673;48.980;8.138;2022-09-09T14:04:49;22.10;99.90
33994;DHT22;20673;48.980;8.138;2022-09-09T14:07:18;21.70;99.90
33994;DHT22;20673;48.980;8.138;2022-09-09T14:09:44;21.60;99.90
33994;DHT22;20673;48.980;8.138;2022-09-09T14:12:13;21.60;99.90
33994;DHT22;20673;48.980;8.138;2022-09-09T14:14:41;21.50;99.90
33994;DHT22;20673;48.980;8.138;2022-09-09T14:17:08;21.60;99.90
33994;DHT22;20673;48.980;8.138;2022-09-09T14:19:35;21.60;99.90
33994;DHT22;20673;48.980;8.138;2022-09-09T14:22:02;21.50;99.90
33994;DHT22;20673;48.980;8.138;2022-09-09T14:24:28;21.40;99.90
33994;DHT22;20673;48.980;8.138;2022-09-09T14:26:55;21.20;99.90
33994;DHT22;20673;48.980;8.138;2022-09-09T14:29:21;21.10;99.90
33994;DHT22;20673;48.980;8.138;2022-09-09T14:31:48;21.00;99.90
33994;DHT22;20673;48.980;8.138;2022-09-09T14:34:14;20.90;99.90
33994;DHT22;20673;48.980;8.138;2022-09-09T14:36:40;20.90;99.90
33994;DHT22;20673;48.980;8.138;2022-09-09T14:39:07;20.90;99.90
33994;DHT22;20673;48.980;8.138;2022-09-09T14:41:33;21.00;99.90
33994;DHT22;20673;48.980;8.138;2022-09-09T14:44:00;20.90;99.90
33994;DHT22;20673;48.980;8.138;2022-09-09T14:46:26;20.80;99.90
33994;DHT22;20673;48.980;8.138;2022-09-09T14:48:52;20.70;99.90
33994;DHT22;20673;48.980;8.138;2022-09-09T14:51:21;20.60;99.90
33994;DHT22;20673;48.980;8.138;2022-09-09T14:53:53;20.50;99.90
33994;DHT22;20673;48.980;8.138;2022-09-09T14:56:22;20.60;99.90
33994;DHT22;20673;48.980;8.138;2022-09-09T14:58:54;20.70;99.90
33994;DHT22;20673;48.980;8.138;2022-09-09T15:01:21;20.90;99.90
33994;DHT22;20673;48.980;8.138;2022-09-09T15:03:50;20.90;99.90
33994;DHT22;20673;48.980;8.138;2022-09-09T15:06:20;20.90;99.90
33994;DHT22;20673;48.980;8.138;2022-09-09T15:08:47;21.00;99.90
33994;DHT22;20673;48.980;8.138;2022-09-09T15:11:16;21.30;99.90
33994;DHT22;20673;48.980;8.138;2022-09-09T15:13:43;21.90;99.90
33994;DHT22;20673;48.980;8.138;2022-09-09T15:16:15;22.30;99.90
33994;DHT22;20673;48.980;8.138;2022-09-09T15:18:43;22.40;99.90
33994;DHT22;20673;48.980;8.138;2022-09-09T15:21:18;22.40;99.90
33994;DHT22;20673;48.980;8.138;2022-09-09T15:23:45;22.50;99.90
33994;DHT22;20673;48.980;8.138;2022-09-09T15:26:13;22.70;99.90
33994;DHT22;20673;48.980;8.138;2022-09-09T15:28:41;22.90;99.90
33994;DHT22;20673;48.980;8.138;2022-09-09T15:31:11;22.90;99.90
33994;DHT22;20673;48.980;8.138;2022-09-09T15:33:41;23.20;99.90
33994;DHT22;20673;48.980;8.138;2022-09-09T15:36:22;23.30;99.90
33994;DHT22;20673;48.980;8.138;2022-09-09T15:38:50;23.20;99.90
33994;DHT22;20673;48.980;8.138;2022-09-09T15:41:19;22.60;99.90
33994;DHT22;20673;48.980;8.138;2022-09-09T15:43:49;22.10;99.90
33994;DHT22;20673;48.980;8.138;2022-09-09T15:48:57;21.10;99.90
33994;DHT22;20673;48.980;8.138;2022-09-09T15:51:25;20.80;99.90
33994;DHT22;20673;48.980;8.138;2022-09-09T15:53:55;20.70;99.90
33994;DHT22;20673;48.980;8.138;2022-09-09T15:56:23;20.60;99.90
33994;DHT22;20673;48.980;8.138;2022-09-09T15:58:50;20.40;99.90
33994;DHT22;20673;48.980;8.138;2022-09-09T16:01:18;20.20;99.90
33994;DHT22;20673;48.980;8.138;2022-09-09T16:03:45;20.10;99.90
33994;DHT22;20673;48.980;8.138;2022-09-09T16:06:14;20.00;99.90
33994;DHT22;20673;48.980;8.138;2022-09-09T16:08:43;19.90;99.90
33994;DHT22;20673;48.980;8.138;2022-09-09T16:11:17;19.80;99.90
33994;DHT22;20673;48.980;8.138;2022-09-09T16:13:44;19.70;99.90
33994;DHT22;20673;48.980;8.138;2022-09-09T16:16:11;19.60;99.90
33994;DHT22;20673;48.980;8.138;2022-09-09T16:18:41;19.60;99.90
33994;DHT22;20673;48.980;8.138;2022-09-09T16:21:17;19.40;99.90
33994;DHT22;20673;48.980;8.138;2022-09-09T16:23:45;18.80;99.90
33994;DHT22;20673;48.980;8.138;2022-09-09T16:26:13;18.20;99.90
33994;DHT22;20673;48.980;8.138;2022-09-09T16:28:41;18.00;99.90
33994;DHT22;20673;48.980;8.138;2022-09-09T16:31:09;17.80;99.90
33994;DHT22;20673;48.980;8.138;2022-09-09T16:33:37;17.70;99.90
33994;DHT22;20673;48.980;8.138;2022-09-09T16:36:07;17.70;99.90
33994;DHT22;20673;48.980;8.138;2022-09-09T16:38:36;17.70;99.90
33994;DHT22;20673;48.980;8.138;2022-09-09T16:41:04;17.80;99.90
33994;DHT22;20673;48.980;8.138;2022-09-09T16:43:33;17.80;99.90
33994;DHT22;20673;48.980;8.138;2022-09-09T16:46:00;17.70;99.90
33994;DHT22;20673;48.980;8.138;2022-09-09T16:48:31;17.80;99.90
33994;DHT22;20673;48.980;8.138;2022-09-09T16:51:01;17.80;99.90
33994;DHT22;20673;48.980;8.138;2022-09-09T16:53:31;17.80;99.90
33994;DHT22;20673;48.980;8.138;2022-09-09T16:55:57;17.80;99.90
33994;DHT22;20673;48.980;8.138;2022-09-09T16:58:24;17.80;99.90
33994;DHT22;20673;48.980;8.138;2022-09-09T17:00:50;17.80;99.90
33994;DHT22;20673;48.980;8.138;2022-09-09T17:03:16;17.70;99.90
33994;DHT22;20673;48.980;8.138;2022-09-09T17:05:42;17.60;99.90
33994;DHT22;20673;48.980;8.138;2022-09-09T17:08:10;17.40;99.90
33994;DHT22;20673;48.980;8.138;2022-09-09T17:10:41;17.30;99.90
33994;DHT22;20673;48.980;8.138;2022-09-09T17:13:08;17.30;99.90
33994;DHT22;20673;48.980;8.138;2022-09-09T17:15:40;17.20;99.90
33994;DHT22;20673;48.980;8.138;2022-09-09T17:18:10;17.10;99.90
33994;DHT22;20673;48.980;8.138;2022-09-09T17:20:39;17.10;99.90
33994;DHT22;20673;48.980;8.138;2022-09-09T17:23:08;17.00;99.90
33994;DHT22;20673;48.980;8.138;2022-09-09T17:25:36;17.00;99.90
33994;DHT22;20673;48.980;8.138;2022-09-09T17:28:03;16.90;99.90
33994;DHT22;20673;48.980;8.138;2022-09-09T17:30:33;16.80;99.90
33994;DHT22;20673;48.980;8.138;2022-09-09T17:33:00;16.80;99.90
33994;DHT22;20673;48.980;8.138;2022-09-09T17:35:27;16.70;99.90
33994;DHT22;20673;48.980;8.138;2022-09-09T17:37:53;16.70;99.90
33994;DHT22;20673;48.980;8.138;2022-09-09T17:40:20;16.60;99.90
33994;DHT22;20673;48.980;8.138;2022-09-09T17:42:46;16.50;99.90
33994;DHT22;20673;48.980;8.138;2022-09-09T17:45:13;16.40;99.90
33994;DHT22;20673;48.980;8.138;2022-09-09T17:47:40;16.30;99.90
33994;DHT22;20673;48.980;8.138;2022-09-09T17:50:09;16.20;99.90
33994;DHT22;20673;48.980;8.138;2022-09-09T17:52:39;16.10;99.90
33994;DHT22;20673;48.980;8.138;2022-09-09T17:55:07;16.00;99.90
33994;DHT22;20673;48.980;8.138;2022-09-09T17:57:35;15.90;99.90
33994;DHT22;20673;48.980;8.138;2022-09-09T18:00:01;15.90;99.90
33994;DHT22;20673;48.980;8.138;2022-09-09T18:02:29;15.80;99.90
33994;DHT22;20673;48.980;8.138;2022-09-09T18:04:55;15.80;99.90
33994;DHT22;20673;48.980;8.138;2022-09-09T18:07:21;15.90;99.90
33994;DHT22;20673;48.980;8.138;2022-09-09T18:09:49;15.80;99.90